createdAt,value
2022-08-29T00:01:12.353Z,8.40
2022-08-29T00:03:40.890Z,8.32
2022-08-29T00:06:07.957Z,8.57
2022-08-29T00:08:34.801Z,7.68
2022-08-29T00:11:01.662Z,8.13
2022-08-29T00:13:28.403Z,8.70
2022-08-29T00:15:55.155Z,7.80
2022-08-29T00:18:21.934Z,8.45
2022-08-29T00:20:48.763Z,9.50
2022-08-29T00:23:15.570Z,8.45
2022-08-29T00:25:42.443Z,7.88
2022-08-29T00:28:11.347Z,7.57
2022-08-29T00:30:38.501Z,6.93
2022-08-29T00:33:05.690Z,6.65
2022-08-29T00:35:35.526Z,5.72
2022-08-29T00:38:05.614Z,6.05
2022-08-29T00:40:36.737Z,5.45
2022-08-29T00:43:04.276Z,5.45
2022-08-29T00:45:32.427Z,6.60
2022-08-29T00:48:05.242Z,6.57
2022-08-29T00:50:37.860Z,7.05
2022-08-29T00:53:08.440Z,4.50
2022-08-29T00:55:37.760Z,4.55
2022-08-29T00:58:14.387Z,5.43
2022-08-29T01:00:43.415Z,4.47
2022-08-29T01:03:10.277Z,5.10
2022-08-29T01:05:37.604Z,5.40
2022-08-29T01:08:05.982Z,6.00
2022-08-29T01:10:53.894Z,5.10
2022-08-29T01:13:27.835Z,5.13
2022-08-29T01:15:56.448Z,4.55
2022-08-29T01:18:24.516Z,3.92
2022-08-29T01:21:36.963Z,4.40
2022-08-29T01:24:35.896Z,4.40
2022-08-29T01:27:03.114Z,4.68
2022-08-29T01:29:29.983Z,4.05
2022-08-29T01:31:58.269Z,4.53
2022-08-29T01:34:28.285Z,4.07
2022-08-29T01:36:57.142Z,3.53
2022-08-29T01:39:29.349Z,3.95
2022-08-29T01:41:57.958Z,3.78
2022-08-29T01:44:28.048Z,3.53
2022-08-29T01:47:02.714Z,3.90
2022-08-29T01:49:33.234Z,4.45
2022-08-29T01:52:02.063Z,3.50
2022-08-29T01:54:30.235Z,3.95
2022-08-29T01:56:57.289Z,3.67
2022-08-29T01:59:27.319Z,3.90
2022-08-29T02:01:58.749Z,3.72
2022-08-29T02:04:25.737Z,4.13
2022-08-29T02:06:52.681Z,3.72
2022-08-29T02:09:19.523Z,3.80
2022-08-29T02:11:48.256Z,3.97
2022-08-29T02:14:19.649Z,3.67
2022-08-29T02:16:47.554Z,4.20
2022-08-29T02:19:14.640Z,3.50
2022-08-29T02:21:41.915Z,3.63
2022-08-29T02:24:24.560Z,3.70
2022-08-29T02:26:53.294Z,4.80
2022-08-29T02:29:20.135Z,3.88
2022-08-29T02:31:47.175Z,4.13
2022-08-29T02:34:14.335Z,4.18
2022-08-29T02:36:41.463Z,4.45
2022-08-29T02:39:09.032Z,4.50
2022-08-29T02:41:36.262Z,4.57
2022-08-29T02:44:03.402Z,4.97
2022-08-29T02:46:30.388Z,5.03
2022-08-29T02:49:00.025Z,4.18
2022-08-29T02:51:31.637Z,5.35
2022-08-29T02:53:59.290Z,4.78
2022-08-29T02:56:27.061Z,3.97
2022-08-29T02:58:53.852Z,5.00
2022-08-29T03:01:22.671Z,4.50
2022-08-29T03:03:50.584Z,4.97
2022-08-29T03:06:18.443Z,4.50
2022-08-29T03:08:45.686Z,4.55
2022-08-29T03:11:12.454Z,3.88
2022-08-29T03:13:39.607Z,5.32
2022-08-29T03:16:06.463Z,4.47
2022-08-29T03:18:33.435Z,5.00
2022-08-29T03:21:00.269Z,5.22
2022-08-29T03:23:27.272Z,5.25
2022-08-29T03:25:55.049Z,4.57
2022-08-29T03:28:22.130Z,5.00
2022-08-29T03:30:49.014Z,5.50
2022-08-29T03:33:17.041Z,4.80
2022-08-29T03:35:43.856Z,4.57
2022-08-29T03:38:10.740Z,4.68
2022-08-29T03:40:41.140Z,4.50
2022-08-29T03:43:09.593Z,4.80
2022-08-29T03:45:36.839Z,4.63
2022-08-29T03:48:04.451Z,4.80
2022-08-29T03:50:31.295Z,4.90
2022-08-29T03:52:59.519Z,4.63
2022-08-29T03:55:26.472Z,4.72
2022-08-29T03:57:55.778Z,4.30
2022-08-29T04:00:22.969Z,4.97
2022-08-29T04:02:52.011Z,4.53
2022-08-29T04:05:19.637Z,5.03
2022-08-29T04:07:52.420Z,5.05
2022-08-29T04:10:23.502Z,5.03
2022-08-29T04:12:54.434Z,4.85
2022-08-29T04:15:21.963Z,4.75
2022-08-29T04:17:54.536Z,5.07
2022-08-29T04:20:25.410Z,4.90
2022-08-29T04:22:56.210Z,5.32
2022-08-29T04:25:25.141Z,4.30
2022-08-29T04:27:53.485Z,5.07
2022-08-29T04:30:22.760Z,5.57
2022-08-29T04:32:50.194Z,4.68
2022-08-29T04:35:17.388Z,4.20
2022-08-29T04:37:44.977Z,5.35
2022-08-29T04:40:15.825Z,5.00
2022-08-29T04:42:43.473Z,5.25
2022-08-29T04:45:13.120Z,4.97
2022-08-29T04:47:41.545Z,5.25
2022-08-29T04:50:11.319Z,4.38
2022-08-29T04:52:39.082Z,4.28
2022-08-29T04:55:07.810Z,4.35
2022-08-29T04:57:36.334Z,4.90
2022-08-29T05:00:05.961Z,4.88
2022-08-29T05:02:32.782Z,5.40
2022-08-29T05:04:59.697Z,5.30
2022-08-29T05:07:27.060Z,5.22
2022-08-29T05:10:17.899Z,5.00
2022-08-29T05:12:46.111Z,5.40
2022-08-29T05:15:14.055Z,6.28
2022-08-29T05:17:41.509Z,5.88
2022-08-29T05:20:09.136Z,5.55
2022-08-29T05:22:36.416Z,5.97
2022-08-29T05:25:05.081Z,5.97
2022-08-29T05:27:32.281Z,5.90
2022-08-29T05:30:00.943Z,6.70
2022-08-29T05:32:27.844Z,6.22
2022-08-29T05:34:55.955Z,6.13
2022-08-29T05:37:23.429Z,6.25
2022-08-29T05:39:52.106Z,6.82
2022-08-29T05:42:22.095Z,7.25
2022-08-29T05:44:49.085Z,7.07
2022-08-29T05:47:17.682Z,6.95
2022-08-29T05:49:45.966Z,7.15
2022-08-29T05:52:14.024Z,8.48
2022-08-29T05:54:42.242Z,7.80
2022-08-29T05:57:14.177Z,8.27
2022-08-29T05:59:44.072Z,8.90
2022-08-29T06:02:12.189Z,8.13
2022-08-29T06:04:39.594Z,8.57
2022-08-29T06:07:08.075Z,7.75
2022-08-29T06:09:46.256Z,8.00
2022-08-29T06:12:15.509Z,7.85
2022-08-29T06:14:50.511Z,8.05
2022-08-29T06:17:18.513Z,9.07
2022-08-29T06:19:49.647Z,8.75
2022-08-29T06:22:16.692Z,8.20
2022-08-29T06:24:45.342Z,10.15
2022-08-29T06:27:14.267Z,11.43
2022-08-29T06:29:43.269Z,10.48
2022-08-29T06:32:12.088Z,10.15
2022-08-29T06:34:39.207Z,10.27
2022-08-29T06:37:09.438Z,10.63
2022-08-29T06:39:40.339Z,10.40
2022-08-29T06:42:10.048Z,9.60
2022-08-29T06:44:44.506Z,12.25
2022-08-29T06:47:20.401Z,14.20
2022-08-29T06:49:47.491Z,13.30
2022-08-29T06:52:14.660Z,15.27
2022-08-29T06:54:41.822Z,15.00
2022-08-29T06:57:11.632Z,15.02
2022-08-29T06:59:38.658Z,10.82
2022-08-29T07:02:14.975Z,9.90
2022-08-29T07:04:42.068Z,9.60
2022-08-29T07:07:09.202Z,8.95
2022-08-29T07:09:36.902Z,8.85
2022-08-29T07:12:04.274Z,9.18
2022-08-29T07:14:34.195Z,9.45
2022-08-29T07:17:01.492Z,9.38
2022-08-29T07:19:29.989Z,9.52
2022-08-29T07:21:59.000Z,8.80
2022-08-29T07:24:38.243Z,8.82
2022-08-29T07:27:11.466Z,8.88
2022-08-29T07:29:50.780Z,9.43
2022-08-29T07:32:21.682Z,9.38
2022-08-29T07:34:56.278Z,9.30
2022-08-29T07:37:24.597Z,8.30
2022-08-29T07:39:51.806Z,9.00
2022-08-29T07:42:23.629Z,9.02
2022-08-29T07:44:53.772Z,8.88
2022-08-29T07:47:29.005Z,8.45
2022-08-29T07:50:03.896Z,9.02
2022-08-29T07:52:43.435Z,9.18
2022-08-29T07:55:12.643Z,9.43
2022-08-29T07:57:47.707Z,9.18
2022-08-29T08:00:15.293Z,10.02
2022-08-29T08:02:43.073Z,9.35
2022-08-29T08:05:12.053Z,8.63
2022-08-29T08:07:48.071Z,9.00
2022-08-29T08:10:23.014Z,8.07
2022-08-29T08:12:57.745Z,8.77
2022-08-29T08:15:29.280Z,8.80
2022-08-29T08:18:01.492Z,8.35
2022-08-29T08:20:34.660Z,9.25
2022-08-29T08:23:27.940Z,8.63
2022-08-29T08:26:37.913Z,8.45
2022-08-29T08:29:28.131Z,9.43
2022-08-29T08:32:12.061Z,8.45
2022-08-29T08:34:45.228Z,8.63
2022-08-29T08:37:19.535Z,7.85
2022-08-29T08:41:17.623Z,9.05
2022-08-29T08:43:45.671Z,7.22
2022-08-29T08:46:59.984Z,7.80
2022-08-29T08:49:45.976Z,7.72
2022-08-29T08:52:36.980Z,7.55
2022-08-29T08:55:18.128Z,7.20
2022-08-29T08:57:57.082Z,8.25
2022-08-29T09:00:37.592Z,6.80
2022-08-29T09:03:43.727Z,7.47
2022-08-29T09:06:45.538Z,8.20
2022-08-29T09:09:35.949Z,6.35
2022-08-29T09:12:36.202Z,6.40
2022-08-29T09:15:21.633Z,6.50
2022-08-29T09:17:58.462Z,6.72
2022-08-29T09:20:30.513Z,7.10
2022-08-29T09:23:35.142Z,6.10
2022-08-29T09:26:05.155Z,6.63
2022-08-29T09:28:35.471Z,6.35
2022-08-29T09:31:23.048Z,5.72
2022-08-29T09:33:58.208Z,6.07
2022-08-29T09:36:34.523Z,5.30
2022-08-29T09:39:23.092Z,5.85
2022-08-29T09:41:57.364Z,6.15
2022-08-29T09:44:30.253Z,5.90
2022-08-29T09:47:14.867Z,5.40
2022-08-29T09:50:07.346Z,5.40
2022-08-29T09:52:35.204Z,5.00
2022-08-29T09:55:25.157Z,6.32
2022-08-29T09:57:56.247Z,5.90
2022-08-29T10:00:31.872Z,5.90
2022-08-29T10:03:03.738Z,5.53
2022-08-29T10:05:35.598Z,5.80
2022-08-29T10:08:06.140Z,6.65
2022-08-29T10:10:37.963Z,5.90
2022-08-29T10:13:35.176Z,5.75
2022-08-29T10:16:36.449Z,6.65
2022-08-29T10:19:27.018Z,6.28
2022-08-29T10:22:17.865Z,5.90
2022-08-29T10:25:03.049Z,6.07
2022-08-29T10:27:46.104Z,5.85
2022-08-29T10:30:41.363Z,5.53
2022-08-29T10:33:40.052Z,6.18
2022-08-29T10:36:27.943Z,5.88
2022-08-29T10:39:14.091Z,6.15
2022-08-29T10:41:57.213Z,6.03
2022-08-29T10:44:50.273Z,5.13
2022-08-29T10:47:40.221Z,6.18
2022-08-29T10:50:10.122Z,5.47
2022-08-29T10:53:14.948Z,5.68
2022-08-29T10:55:47.573Z,6.35
2022-08-29T10:58:39.453Z,5.40
2022-08-29T11:01:38.429Z,5.90
2022-08-29T11:04:20.002Z,5.43
2022-08-29T11:07:04.844Z,4.70
2022-08-29T11:09:51.364Z,5.18
2022-08-29T11:12:25.339Z,5.95
2022-08-29T11:15:27.365Z,5.00
2022-08-29T11:18:07.214Z,5.05
2022-08-29T11:20:42.754Z,4.50
2022-08-29T11:23:40.579Z,4.68
2022-08-29T11:26:46.389Z,5.00
2022-08-29T11:29:34.472Z,4.63
2022-08-29T11:32:14.657Z,4.82
2022-08-29T11:35:07.916Z,5.90
2022-08-29T11:37:50.338Z,5.03
2022-08-29T11:40:48.665Z,4.70
2022-08-29T11:43:46.172Z,4.97
2022-08-29T11:46:17.164Z,5.00
2022-08-29T11:48:55.792Z,4.97
2022-08-29T11:51:37.894Z,5.20
2022-08-29T11:54:37.262Z,4.88
2022-08-29T11:57:04.476Z,5.75
2022-08-29T11:59:49.545Z,5.18
2022-08-29T12:02:33.113Z,4.80
2022-08-29T12:05:17.948Z,4.50
2022-08-29T12:07:51.170Z,4.53
2022-08-29T12:10:23.756Z,5.32
2022-08-29T12:12:59.238Z,4.68
2022-08-29T12:15:38.420Z,5.03
2022-08-29T12:18:19.498Z,4.88
2022-08-29T12:20:52.417Z,5.13
2022-08-29T12:23:35.786Z,4.55
2022-08-29T12:26:21.926Z,4.68
2022-08-29T12:29:10.382Z,4.43
2022-08-29T12:32:02.201Z,4.70
2022-08-29T12:35:07.425Z,4.70
2022-08-29T12:37:57.746Z,3.60
2022-08-29T12:41:15.319Z,4.32
2022-08-29T12:43:46.880Z,4.53
2022-08-29T12:46:40.872Z,3.90
2022-08-29T12:49:29.149Z,4.07
2022-08-29T12:52:05.243Z,4.82
2022-08-29T12:54:37.834Z,4.63
2022-08-29T12:57:20.314Z,4.28
2022-08-29T12:59:50.648Z,3.78
2022-08-29T13:02:34.803Z,3.60
2022-08-29T13:05:29.267Z,4.03
2022-08-29T13:08:13.016Z,4.13
2022-08-29T13:11:18.864Z,3.70
2022-08-29T13:13:46.620Z,4.30
2022-08-29T13:16:29.900Z,3.83
2022-08-29T13:19:11.278Z,4.22
2022-08-29T13:21:39.441Z,3.30
2022-08-29T13:24:20.897Z,3.70
2022-08-29T13:27:05.810Z,3.75
2022-08-29T13:29:44.946Z,3.78
2022-08-29T13:32:35.857Z,4.70
2022-08-29T13:35:17.038Z,3.55
2022-08-29T13:37:46.687Z,4.28
2022-08-29T13:40:47.362Z,4.25
2022-08-29T13:43:43.227Z,5.70
2022-08-29T13:46:14.973Z,4.22
2022-08-29T13:48:43.958Z,4.57
2022-08-29T13:51:14.843Z,4.55
2022-08-29T13:53:45.370Z,5.05
2022-08-29T13:56:23.465Z,4.55
2022-08-29T13:58:51.291Z,3.85
2022-08-29T14:01:30.364Z,5.35
2022-08-29T14:04:03.603Z,5.03
2022-08-29T14:06:37.808Z,5.45
2022-08-29T14:09:05.157Z,5.25
2022-08-29T14:11:32.721Z,5.50
2022-08-29T14:13:59.685Z,6.57
2022-08-29T14:16:26.892Z,4.78
2022-08-29T14:18:54.716Z,5.63
2022-08-29T14:21:24.723Z,6.00
2022-08-29T14:23:53.831Z,4.50
2022-08-29T14:26:24.342Z,5.30
2022-08-29T14:28:52.536Z,4.50
2022-08-29T14:31:19.467Z,5.70
2022-08-29T14:33:51.641Z,4.85
2022-08-29T14:36:18.912Z,6.07
2022-08-29T14:38:48.110Z,5.25
2022-08-29T14:41:15.464Z,5.00
2022-08-29T14:43:42.361Z,5.20
2022-08-29T14:46:09.609Z,4.22
2022-08-29T14:48:36.832Z,5.80
2022-08-29T14:51:04.027Z,5.68
2022-08-29T14:53:33.988Z,4.53
2022-08-29T14:56:05.828Z,4.65
2022-08-29T14:58:32.847Z,4.00
2022-08-29T15:01:00.168Z,4.82
2022-08-29T15:03:27.201Z,5.35
2022-08-29T15:05:54.419Z,5.30
2022-08-29T15:08:23.811Z,3.95
2022-08-29T15:10:50.772Z,4.13
2022-08-29T15:13:17.654Z,5.35
2022-08-29T15:15:44.652Z,4.53
2022-08-29T15:18:25.970Z,3.78
2022-08-29T15:20:57.913Z,3.20
2022-08-29T15:23:26.415Z,3.95
2022-08-29T15:25:54.029Z,3.10
2022-08-29T15:28:21.068Z,3.88
2022-08-29T15:30:48.076Z,3.58
2022-08-29T15:33:15.253Z,3.72
2022-08-29T15:35:42.184Z,4.25
2022-08-29T15:38:09.827Z,3.85
2022-08-29T15:40:39.458Z,4.28
2022-08-29T15:43:06.591Z,3.50
2022-08-29T15:45:33.610Z,3.45
2022-08-29T15:48:01.061Z,3.13
2022-08-29T15:50:29.033Z,3.70
2022-08-29T15:52:56.139Z,3.38
2022-08-29T15:55:24.895Z,4.60
2022-08-29T15:57:53.057Z,4.95
2022-08-29T16:00:29.491Z,6.90
2022-08-29T16:03:04.854Z,5.35
2022-08-29T16:05:39.480Z,5.45
2022-08-29T16:08:06.746Z,4.45
2022-08-29T16:10:34.843Z,5.47
2022-08-29T16:13:02.267Z,5.32
2022-08-29T16:15:31.332Z,4.03
2022-08-29T16:18:00.308Z,5.10
2022-08-29T16:20:27.462Z,4.75
2022-08-29T16:22:54.584Z,4.47
2022-08-29T16:25:24.533Z,5.00
2022-08-29T16:27:51.904Z,4.80
2022-08-29T16:30:20.199Z,4.95
2022-08-29T16:32:50.069Z,4.78
2022-08-29T16:35:18.585Z,5.93
2022-08-29T16:37:46.258Z,6.15
2022-08-29T16:40:21.263Z,6.28
2022-08-29T16:42:55.661Z,6.93
2022-08-29T16:45:23.832Z,7.72
2022-08-29T16:47:57.225Z,8.07
2022-08-29T16:50:25.619Z,8.35
2022-08-29T16:52:54.887Z,7.70
2022-08-29T16:55:33.438Z,7.45
2022-08-29T16:58:21.522Z,7.10
2022-08-29T17:00:50.799Z,7.72
2022-08-29T17:03:20.307Z,6.90
2022-08-29T17:05:49.411Z,8.23
2022-08-29T17:08:16.992Z,6.35
2022-08-29T17:10:44.293Z,7.68
2022-08-29T17:13:11.269Z,7.60
2022-08-29T17:15:40.877Z,7.63
2022-08-29T17:18:08.346Z,8.00
2022-08-29T17:20:38.612Z,9.48
2022-08-29T17:23:05.811Z,8.38
2022-08-29T17:25:38.459Z,8.50
2022-08-29T17:28:21.054Z,7.75
2022-08-29T17:30:49.550Z,7.32
2022-08-29T17:33:20.505Z,7.65
2022-08-29T17:35:48.150Z,7.60
2022-08-29T17:38:18.259Z,6.88
2022-08-29T17:40:49.561Z,8.27
2022-08-29T17:43:19.408Z,7.53
2022-08-29T17:45:47.627Z,6.55
2022-08-29T17:48:15.428Z,7.28
2022-08-29T17:50:45.475Z,7.05
2022-08-29T17:53:13.112Z,7.30
2022-08-29T17:55:40.542Z,7.32
2022-08-29T17:58:10.900Z,6.05
2022-08-29T18:00:41.392Z,6.47
2022-08-29T18:03:08.892Z,6.72
2022-08-29T18:05:35.961Z,5.85
2022-08-29T18:08:03.155Z,6.75
2022-08-29T18:10:33.309Z,6.35
2022-08-29T18:13:00.306Z,6.60
2022-08-29T18:15:28.026Z,6.15
2022-08-29T18:17:57.393Z,5.85
2022-08-29T18:20:24.289Z,6.18
2022-08-29T18:22:51.411Z,6.00
2022-08-29T18:25:22.302Z,6.60
2022-08-29T18:27:50.585Z,6.78
2022-08-29T18:30:17.947Z,6.82
2022-08-29T18:32:44.799Z,7.18
2022-08-29T18:35:11.980Z,7.07
2022-08-29T18:37:39.705Z,7.40
2022-08-29T18:40:08.480Z,7.40
2022-08-29T18:42:43.040Z,7.45
2022-08-29T18:45:12.062Z,7.28
2022-08-29T18:47:38.942Z,8.60
2022-08-29T18:50:25.497Z,7.68
2022-08-29T18:52:53.873Z,8.02
2022-08-29T18:55:23.405Z,8.23
2022-08-29T18:57:51.139Z,8.68
2022-08-29T19:00:19.014Z,8.45
2022-08-29T19:02:45.866Z,8.18
2022-08-29T19:05:13.542Z,7.32
2022-08-29T19:07:40.774Z,7.28
2022-08-29T19:10:08.594Z,7.40
2022-08-29T19:12:35.689Z,6.85
2022-08-29T19:15:04.683Z,7.60
2022-08-29T19:17:31.859Z,7.15
2022-08-29T19:20:37.249Z,7.18
2022-08-29T19:23:05.837Z,8.50
2022-08-29T19:25:33.658Z,7.30
2022-08-29T19:28:03.202Z,6.30
2022-08-29T19:30:30.328Z,7.15
2022-08-29T19:32:57.593Z,7.63
2022-08-29T19:35:26.090Z,7.90
2022-08-29T19:37:53.308Z,7.15
2022-08-29T19:40:23.633Z,7.82
2022-08-29T19:42:56.049Z,7.97
2022-08-29T19:45:26.951Z,8.10
2022-08-29T19:47:55.578Z,7.32
2022-08-29T19:50:26.154Z,7.30
2022-08-29T19:52:55.988Z,7.45
2022-08-29T19:55:24.318Z,8.07
2022-08-29T19:57:52.106Z,7.78
2022-08-29T20:00:23.868Z,7.88
2022-08-29T20:02:52.515Z,8.23
2022-08-29T20:05:20.080Z,7.50
2022-08-29T20:07:48.904Z,8.05
2022-08-29T20:10:25.606Z,9.48
2022-08-29T20:12:55.163Z,7.38
2022-08-29T20:15:26.742Z,7.50
2022-08-29T20:18:00.247Z,7.55
2022-08-29T20:20:34.673Z,7.72
2022-08-29T20:23:09.026Z,7.50
2022-08-29T20:25:36.006Z,7.63
2022-08-29T20:28:04.367Z,7.65
2022-08-29T20:30:34.537Z,7.47
2022-08-29T20:33:01.660Z,7.63
2022-08-29T20:35:47.256Z,7.38
2022-08-29T20:38:14.983Z,7.82
2022-08-29T20:40:46.898Z,7.70
2022-08-29T20:43:15.330Z,7.57
2022-08-29T20:45:42.758Z,7.53
2022-08-29T20:48:11.060Z,7.78
2022-08-29T20:50:38.254Z,8.88
2022-08-29T20:53:05.823Z,8.55
2022-08-29T20:55:33.540Z,7.32
2022-08-29T20:58:00.862Z,7.88
2022-08-29T21:00:31.024Z,7.38
2022-08-29T21:03:17.552Z,8.30
2022-08-29T21:05:44.756Z,8.48
2022-08-29T21:08:21.190Z,8.10
2022-08-29T21:10:49.402Z,7.22
2022-08-29T21:13:17.690Z,8.48
2022-08-29T21:15:45.245Z,8.50
2022-08-29T21:18:14.576Z,7.95
2022-08-29T21:20:54.458Z,7.90
2022-08-29T21:23:23.085Z,7.57
2022-08-29T21:26:08.603Z,7.35
2022-08-29T21:28:37.981Z,8.45
2022-08-29T21:31:12.843Z,7.28
2022-08-29T21:33:44.577Z,7.68
2022-08-29T21:36:13.355Z,8.07
2022-08-29T21:38:40.590Z,8.27
2022-08-29T21:41:15.055Z,8.23
2022-08-29T21:43:42.518Z,8.90
2022-08-29T21:46:20.215Z,8.10
2022-08-29T21:48:47.875Z,8.07
2022-08-29T21:51:18.795Z,9.20
2022-08-29T21:53:47.430Z,8.65
2022-08-29T21:56:14.882Z,9.38
2022-08-29T21:58:42.229Z,8.95
2022-08-29T22:01:12.309Z,8.68
2022-08-29T22:03:39.798Z,8.80
2022-08-29T22:06:11.189Z,8.65
2022-08-29T22:08:38.929Z,8.85
2022-08-29T22:11:18.355Z,8.60
2022-08-29T22:13:45.711Z,9.38
2022-08-29T22:16:31.075Z,8.60
2022-08-29T22:19:16.619Z,8.68
2022-08-29T22:24:17.506Z,9.45
2022-08-29T22:26:44.985Z,9.10
2022-08-29T22:29:16.111Z,9.40
2022-08-29T22:31:44.658Z,8.85
2022-08-29T22:34:17.783Z,9.52
2022-08-29T22:36:45.121Z,9.60
2022-08-29T22:39:12.035Z,9.63
2022-08-29T22:41:38.989Z,9.32
2022-08-29T22:44:42.425Z,9.18
2022-08-29T22:46:55.404Z,9.68
2022-08-29T22:49:22.425Z,9.48
2022-08-29T22:51:52.780Z,9.68
2022-08-29T22:54:35.223Z,9.02
2022-08-29T22:57:05.714Z,9.73
2022-08-29T22:59:33.849Z,10.60
2022-08-29T23:02:01.556Z,9.63
2022-08-29T23:04:29.926Z,9.13
2022-08-29T23:06:56.937Z,9.57
2022-08-29T23:09:23.981Z,10.20
2022-08-29T23:11:50.861Z,8.85
2022-08-29T23:14:20.780Z,9.60
2022-08-29T23:16:48.509Z,10.18
2022-08-29T23:19:16.415Z,9.85
2022-08-29T23:21:43.578Z,9.90
2022-08-29T23:24:10.790Z,10.52
2022-08-29T23:26:37.964Z,9.38
2022-08-29T23:29:04.968Z,9.68
2022-08-29T23:31:32.502Z,9.68
2022-08-29T23:33:59.613Z,9.25
2022-08-29T23:36:26.607Z,10.02
2022-08-29T23:38:53.554Z,8.52
2022-08-29T23:41:22.375Z,9.48
2022-08-29T23:43:49.295Z,8.95
2022-08-29T23:46:16.514Z,9.07
2022-08-29T23:48:43.707Z,9.48
2022-08-29T23:51:14.672Z,9.80
2022-08-29T23:53:43.335Z,9.25
2022-08-29T23:56:20.556Z,9.75
2022-08-29T23:58:48.479Z,9.60
